createdAt,value
2018-09-23T00:00:34.101Z,11.40
2018-09-23T00:03:02.441Z,11.40
2018-09-23T00:05:30.779Z,11.40
2018-09-23T00:07:59.257Z,11.40
2018-09-23T00:10:27.672Z,11.40
2018-09-23T00:12:56.036Z,11.40
2018-09-23T00:15:24.729Z,11.50
2018-09-23T00:17:53.093Z,11.40
2018-09-23T00:20:21.439Z,11.40
2018-09-23T00:22:49.854Z,11.40
2018-09-23T00:25:18.330Z,11.40
2018-09-23T00:27:46.671Z,11.50
2018-09-23T00:30:15.357Z,11.50
2018-09-23T00:32:43.787Z,11.40
2018-09-23T00:35:12.228Z,11.40
2018-09-23T00:37:40.959Z,11.40
2018-09-23T00:40:09.537Z,11.40
2018-09-23T00:42:37.876Z,11.50
2018-09-23T00:45:06.292Z,11.40
2018-09-23T00:47:34.632Z,11.40
2018-09-23T00:50:02.989Z,11.50
2018-09-23T00:52:32.163Z,11.60
2018-09-23T00:55:00.715Z,11.50
2018-09-23T00:57:29.064Z,11.50
2018-09-23T00:59:57.497Z,11.40
2018-09-23T01:02:25.870Z,11.40
2018-09-23T01:04:54.200Z,11.40
2018-09-23T01:07:23.043Z,11.40
2018-09-23T01:09:51.381Z,11.40
2018-09-23T01:12:19.723Z,11.40
2018-09-23T01:14:48.583Z,11.40
2018-09-23T01:17:16.962Z,11.40
2018-09-23T01:19:45.386Z,11.40
2018-09-23T01:22:14.472Z,11.40
2018-09-23T01:24:42.824Z,11.40
2018-09-23T01:27:11.182Z,11.40
2018-09-23T01:29:39.547Z,11.40
2018-09-23T01:32:07.884Z,11.40
2018-09-23T01:34:36.230Z,11.40
2018-09-23T01:37:04.613Z,11.40
2018-09-23T01:39:32.939Z,11.30
2018-09-23T01:42:01.275Z,11.40
2018-09-23T01:44:29.954Z,11.40
2018-09-23T01:46:58.309Z,11.30
2018-09-23T01:49:26.667Z,11.30
2018-09-23T01:51:55.050Z,11.30
2018-09-23T01:54:23.380Z,11.30
2018-09-23T01:56:51.920Z,11.40
2018-09-23T01:59:20.292Z,11.30
2018-09-23T02:01:49.551Z,11.30
2018-09-23T02:04:17.872Z,11.30
2018-09-23T02:06:46.288Z,11.30
2018-09-23T02:09:14.704Z,11.30
2018-09-23T02:11:43.080Z,11.30
2018-09-23T02:14:11.713Z,11.30
2018-09-23T02:16:40.071Z,11.30
2018-09-23T02:19:08.417Z,11.30
2018-09-23T02:21:37.388Z,11.30
2018-09-23T02:24:05.716Z,11.30
2018-09-23T02:26:34.060Z,11.30
2018-09-23T02:29:02.512Z,11.30
2018-09-23T02:31:30.876Z,11.30
2018-09-23T02:33:59.584Z,11.30
2018-09-23T02:36:28.374Z,11.30
2018-09-23T02:38:56.790Z,11.30
2018-09-23T02:41:25.233Z,11.30
2018-09-23T02:43:54.924Z,11.30
2018-09-23T02:46:23.601Z,11.30
2018-09-23T02:48:51.943Z,11.30
2018-09-23T02:51:20.928Z,11.20
2018-09-23T02:53:49.256Z,11.20
2018-09-23T02:56:17.618Z,11.10
2018-09-23T02:58:46.788Z,11.10
2018-09-23T03:01:15.184Z,11.20
2018-09-23T03:03:43.544Z,11.20
2018-09-23T03:06:12.288Z,11.20
2018-09-23T03:08:40.657Z,11.30
2018-09-23T03:11:09.869Z,11.20
2018-09-23T03:13:39.420Z,11.20
2018-09-23T03:16:07.820Z,11.20
2018-09-23T03:18:36.676Z,11.20
2018-09-23T03:21:05.432Z,11.20
2018-09-23T03:23:33.888Z,11.20
2018-09-23T03:26:02.302Z,11.20
2018-09-23T03:28:31.228Z,11.20
2018-09-23T03:30:59.620Z,11.20
2018-09-23T03:33:28.159Z,11.10
2018-09-23T03:35:57.504Z,11.10
2018-09-23T03:38:26.135Z,11.10
2018-09-23T03:40:54.512Z,11.10
2018-09-23T03:43:22.855Z,11.10
2018-09-23T03:45:51.176Z,11.10
2018-09-23T03:48:19.499Z,11.00
2018-09-23T03:50:48.477Z,11.10
2018-09-23T03:53:16.814Z,11.00
2018-09-23T03:55:45.187Z,11.10
2018-09-23T03:58:14.238Z,11.20
2018-09-23T04:00:42.949Z,11.10
2018-09-23T04:03:12.203Z,11.20
2018-09-23T04:05:40.991Z,11.20
2018-09-23T04:08:09.413Z,11.30
2018-09-23T04:10:37.849Z,11.10
2018-09-23T04:13:06.768Z,11.20
2018-09-23T04:15:36.156Z,11.20
2018-09-23T04:18:04.833Z,11.20
2018-09-23T04:20:33.672Z,11.10
2018-09-23T04:23:02.009Z,11.10
2018-09-23T04:25:30.336Z,11.20
2018-09-23T04:27:59.124Z,11.20
2018-09-23T04:30:27.480Z,11.30
2018-09-23T04:32:55.808Z,11.30
2018-09-23T04:35:24.309Z,11.30
2018-09-23T04:37:52.848Z,11.20
2018-09-23T04:40:21.171Z,11.30
2018-09-23T04:42:49.800Z,11.20
2018-09-23T04:45:18.131Z,11.30
2018-09-23T04:47:47.504Z,11.20
2018-09-23T04:50:16.284Z,11.20
2018-09-23T04:52:45.848Z,11.10
2018-09-23T04:55:14.333Z,11.20
2018-09-23T04:57:44.364Z,11.20
2018-09-23T05:00:12.752Z,11.20
2018-09-23T05:02:41.176Z,11.20
2018-09-23T05:05:09.912Z,11.20
2018-09-23T05:07:38.260Z,11.10
2018-09-23T05:10:06.668Z,11.20
2018-09-23T05:12:35.072Z,11.20
2018-09-23T05:15:03.440Z,11.20
2018-09-23T05:17:31.779Z,11.20
2018-09-23T05:20:00.872Z,11.10
2018-09-23T05:22:29.246Z,11.20
2018-09-23T05:24:57.598Z,11.10
2018-09-23T05:27:25.945Z,11.20
2018-09-23T05:29:54.285Z,11.10
2018-09-23T05:32:22.636Z,11.20
2018-09-23T05:34:51.675Z,11.30
2018-09-23T05:37:20.016Z,11.30
2018-09-23T05:39:48.359Z,11.20
2018-09-23T05:42:16.723Z,11.20
2018-09-23T05:44:45.903Z,11.30
2018-09-23T05:47:14.311Z,11.30
2018-09-23T05:49:42.709Z,11.30
2018-09-23T05:52:11.240Z,11.30
2018-09-23T05:54:40.592Z,11.30
2018-09-23T05:57:09.352Z,11.30
2018-09-23T05:59:37.732Z,11.20
2018-09-23T06:02:06.140Z,11.30
2018-09-23T06:04:37.904Z,11.20
2018-09-23T06:07:06.280Z,11.30
2018-09-23T06:09:34.656Z,11.30
2018-09-23T06:12:03.011Z,11.30
2018-09-23T06:14:31.363Z,11.40
2018-09-23T06:16:59.824Z,11.40
2018-09-23T06:19:28.647Z,11.40
2018-09-23T06:21:57.060Z,11.50
2018-09-23T06:24:25.397Z,11.40
2018-09-23T06:26:54.120Z,11.30
2018-09-23T06:29:22.524Z,11.40
2018-09-23T06:31:50.875Z,11.40
2018-09-23T06:34:19.643Z,11.40
2018-09-23T06:36:48.024Z,11.40
2018-09-23T06:39:16.384Z,11.40
2018-09-23T06:41:45.146Z,11.30
2018-09-23T06:44:13.487Z,11.30
2018-09-23T06:46:41.820Z,11.40
2018-09-23T06:49:10.214Z,11.40
2018-09-23T06:51:38.550Z,11.40
2018-09-23T06:54:06.895Z,11.50
2018-09-23T06:56:35.255Z,11.50
2018-09-23T06:59:03.610Z,11.60
2018-09-23T07:01:31.980Z,11.60
2018-09-23T07:04:00.339Z,11.50
2018-09-23T07:06:28.877Z,11.60
2018-09-23T07:08:57.199Z,11.50
2018-09-23T07:11:26.084Z,11.60
2018-09-23T07:13:54.406Z,11.60
2018-09-23T07:16:23.252Z,11.60
2018-09-23T07:18:51.904Z,11.60
2018-09-23T07:21:20.230Z,11.60
2018-09-23T07:23:48.590Z,11.60
2018-09-23T07:26:17.216Z,11.60
2018-09-23T07:28:45.551Z,11.60
2018-09-23T07:31:13.899Z,11.60
2018-09-23T07:33:42.255Z,11.60
2018-09-23T07:36:10.640Z,11.60
2018-09-23T07:38:38.981Z,11.60
2018-09-23T07:41:08.236Z,11.60
2018-09-23T07:43:36.564Z,11.70
2018-09-23T07:46:04.913Z,11.80
2018-09-23T07:48:33.684Z,11.90
2018-09-23T07:51:02.024Z,11.90
2018-09-23T07:53:30.382Z,11.90
2018-09-23T07:55:58.839Z,11.90
2018-09-23T07:58:27.208Z,11.90
2018-09-23T08:00:55.552Z,11.80
2018-09-23T08:03:24.267Z,11.70
2018-09-23T08:05:52.631Z,11.80
2018-09-23T08:08:21.084Z,11.80
2018-09-23T08:10:50.018Z,11.80
2018-09-23T08:13:18.394Z,11.80
2018-09-23T08:15:46.710Z,11.70
2018-09-23T08:18:15.377Z,11.70
2018-09-23T08:20:43.756Z,11.80
2018-09-23T08:23:12.536Z,11.70
2018-09-23T08:25:41.630Z,11.80
2018-09-23T08:28:09.922Z,11.70
2018-09-23T08:30:38.270Z,11.60
2018-09-23T08:33:07.053Z,11.60
2018-09-23T08:35:35.437Z,11.60
2018-09-23T08:38:03.768Z,11.50
2018-09-23T08:40:32.116Z,11.60
2018-09-23T08:43:00.485Z,11.50
2018-09-23T08:45:28.832Z,11.50
2018-09-23T08:47:57.329Z,11.60
2018-09-23T08:50:25.683Z,11.60
2018-09-23T08:52:54.024Z,11.70
2018-09-23T08:55:22.748Z,11.70
2018-09-23T08:57:51.127Z,11.60
2018-09-23T09:00:19.436Z,11.60
2018-09-23T09:02:48.447Z,11.70
2018-09-23T09:05:16.796Z,11.60
2018-09-23T09:07:45.128Z,11.60
2018-09-23T09:10:14.545Z,11.70
2018-09-23T09:12:42.975Z,11.80
2018-09-23T09:15:11.400Z,11.80
2018-09-23T09:17:40.334Z,11.80
2018-09-23T09:20:08.664Z,11.80
2018-09-23T09:22:36.988Z,11.70
2018-09-23T09:25:05.384Z,11.80
2018-09-23T09:27:33.712Z,11.90
2018-09-23T09:30:02.283Z,11.90
2018-09-23T09:32:30.640Z,11.90
2018-09-23T09:34:59.036Z,12.00
2018-09-23T09:37:27.364Z,12.00
2018-09-23T09:39:55.756Z,12.00
2018-09-23T09:42:24.103Z,11.90
2018-09-23T09:44:52.452Z,11.90
2018-09-23T09:47:21.114Z,12.00
2018-09-23T09:49:49.510Z,11.90
2018-09-23T09:52:17.920Z,11.90
2018-09-23T09:54:46.860Z,11.90
2018-09-23T09:57:15.275Z,11.90
2018-09-23T09:59:43.625Z,12.00
2018-09-23T10:02:12.068Z,12.00
2018-09-23T10:04:40.395Z,11.90
2018-09-23T10:07:08.740Z,11.90
2018-09-23T10:09:37.368Z,11.90
2018-09-23T10:12:05.796Z,11.90
2018-09-23T10:14:34.139Z,11.90
2018-09-23T10:17:02.943Z,11.90
2018-09-23T10:19:31.312Z,11.90
2018-09-23T10:21:59.726Z,12.00
2018-09-23T10:24:28.181Z,12.10
2018-09-23T10:26:57.232Z,12.00
2018-09-23T10:29:25.563Z,12.00
2018-09-23T10:31:53.987Z,12.00
2018-09-23T10:34:22.268Z,11.90
2018-09-23T10:36:50.615Z,11.80
2018-09-23T10:39:19.376Z,11.80
2018-09-23T10:41:47.828Z,11.80
2018-09-23T10:44:16.157Z,11.70
2018-09-23T10:46:44.536Z,11.90
2018-09-23T10:49:14.201Z,11.90
2018-09-23T10:51:42.590Z,11.90
2018-09-23T10:54:11.969Z,11.90
2018-09-23T10:56:40.308Z,12.00
2018-09-23T10:59:08.644Z,11.90
2018-09-23T11:01:37.044Z,11.80
2018-09-23T11:04:05.790Z,11.80
2018-09-23T11:06:33.984Z,11.80
2018-09-23T11:09:02.340Z,11.80
2018-09-23T11:11:30.712Z,11.80
2018-09-23T11:14:01.332Z,11.70
2018-09-23T11:16:30.724Z,11.70
2018-09-23T11:19:00.960Z,11.50
2018-09-23T11:21:29.321Z,11.60
2018-09-23T11:23:58.304Z,11.60
2018-09-23T11:26:26.654Z,11.60
2018-09-23T11:28:54.983Z,11.70
2018-09-23T11:31:23.456Z,11.70
2018-09-23T11:33:52.812Z,11.50
2018-09-23T11:36:21.156Z,11.70
2018-09-23T11:38:49.855Z,11.60
2018-09-23T11:41:18.221Z,11.60
2018-09-23T11:43:46.552Z,11.70
2018-09-23T11:46:15.262Z,11.70
2018-09-23T11:48:43.597Z,11.60
2018-09-23T11:51:11.956Z,11.70
2018-09-23T11:53:42.891Z,11.60
2018-09-23T11:56:11.240Z,11.60
2018-09-23T11:58:39.624Z,11.60
2018-09-23T12:01:08.278Z,11.60
2018-09-23T12:03:36.636Z,11.60
2018-09-23T12:06:04.996Z,11.70
2018-09-23T12:08:33.500Z,11.70
2018-09-23T12:11:01.943Z,11.70
2018-09-23T12:13:30.281Z,11.70
2018-09-23T12:15:59.706Z,11.80
2018-09-23T12:18:28.480Z,11.70
2018-09-23T12:20:57.208Z,11.70
2018-09-23T12:23:26.516Z,11.60
2018-09-23T12:25:55.509Z,11.70
2018-09-23T12:28:24.600Z,11.80
2018-09-23T12:30:53.751Z,11.70
2018-09-23T12:33:22.170Z,11.60
2018-09-23T12:35:50.480Z,11.50
2018-09-23T12:38:19.396Z,11.60
2018-09-23T12:40:47.753Z,11.70
2018-09-23T12:43:16.152Z,11.60
2018-09-23T12:45:44.975Z,11.70
2018-09-23T12:48:13.312Z,11.70
2018-09-23T12:50:41.636Z,11.70
2018-09-23T12:53:10.040Z,11.70
2018-09-23T12:55:38.376Z,11.70
2018-09-23T12:58:06.741Z,11.80
2018-09-23T13:00:35.328Z,11.80
2018-09-23T13:03:03.652Z,12.00
2018-09-23T13:05:31.976Z,11.90
2018-09-23T13:08:00.664Z,12.00
2018-09-23T13:10:29.008Z,12.00
2018-09-23T13:12:57.370Z,12.20
2018-09-23T13:15:26.090Z,12.10
2018-09-23T13:17:54.535Z,12.00
2018-09-23T13:20:22.880Z,12.00
2018-09-23T13:22:51.502Z,12.00
2018-09-23T13:25:19.931Z,11.90
2018-09-23T13:27:48.278Z,11.90
2018-09-23T13:30:17.068Z,11.80
2018-09-23T13:32:45.422Z,11.70
2018-09-23T13:35:13.807Z,11.70
2018-09-23T13:37:42.516Z,11.60
2018-09-23T13:40:10.876Z,11.60
2018-09-23T13:42:39.220Z,11.50
2018-09-23T13:45:08.267Z,11.40
2018-09-23T13:47:36.628Z,11.40
2018-09-23T13:50:04.996Z,11.40
2018-09-23T13:52:34.156Z,11.40
2018-09-23T13:55:02.561Z,11.50
2018-09-23T13:57:30.904Z,11.60
2018-09-23T14:00:00.933Z,11.50
2018-09-23T14:02:29.278Z,11.70
2018-09-23T14:04:57.641Z,11.50
2018-09-23T14:07:26.225Z,11.50
2018-09-23T14:09:54.621Z,11.50
2018-09-23T14:12:22.969Z,11.50
2018-09-23T14:14:51.886Z,11.40
2018-09-23T14:17:20.212Z,11.30
2018-09-23T14:19:48.698Z,11.30
2018-09-23T14:22:19.034Z,11.40
2018-09-23T14:24:47.376Z,11.40
2018-09-23T14:27:15.723Z,11.40
2018-09-23T14:29:44.075Z,11.40
2018-09-23T14:32:12.496Z,11.40
2018-09-23T14:34:40.859Z,11.30
2018-09-23T14:37:09.759Z,11.40
2018-09-23T14:39:38.126Z,11.50
2018-09-23T14:42:06.482Z,11.50
2018-09-23T14:44:34.848Z,11.60
2018-09-23T14:47:03.204Z,11.60
2018-09-23T14:49:31.591Z,11.70
2018-09-23T14:52:00.068Z,11.70
2018-09-23T14:54:28.560Z,11.70
2018-09-23T14:56:56.877Z,11.80
2018-09-23T14:59:25.544Z,11.90
2018-09-23T15:01:54.024Z,11.90
2018-09-23T15:04:22.352Z,11.80
2018-09-23T15:06:51.396Z,11.90
2018-09-23T15:09:19.827Z,11.80
2018-09-23T15:11:48.160Z,11.70
2018-09-23T15:14:17.356Z,11.70
2018-09-23T15:16:45.677Z,11.70
2018-09-23T15:19:14.024Z,11.80
2018-09-23T15:21:42.597Z,11.70
2018-09-23T15:24:10.952Z,11.60
2018-09-23T15:26:39.300Z,11.60
2018-09-23T15:29:07.663Z,11.60
2018-09-23T15:31:35.992Z,11.60
2018-09-23T15:34:04.344Z,11.60
2018-09-23T15:36:32.717Z,11.60
2018-09-23T15:39:01.083Z,11.60
2018-09-23T15:41:29.555Z,11.70
2018-09-23T15:43:58.801Z,11.80
2018-09-23T15:46:27.160Z,11.70
2018-09-23T15:48:55.492Z,11.80
2018-09-23T15:51:24.883Z,11.80
2018-09-23T15:53:53.246Z,11.70
2018-09-23T15:56:21.572Z,11.60
2018-09-23T15:58:50.280Z,11.60
2018-09-23T16:01:18.615Z,11.70
2018-09-23T16:03:46.955Z,11.70
2018-09-23T16:06:15.442Z,11.60
2018-09-23T16:08:43.796Z,11.60
2018-09-23T16:11:12.316Z,11.60
2018-09-23T16:13:40.751Z,11.70
2018-09-23T16:16:09.140Z,11.60
2018-09-23T16:18:37.570Z,11.60
2018-09-23T16:21:06.463Z,11.50
2018-09-23T16:23:34.880Z,11.50
2018-09-23T16:26:03.287Z,11.60
2018-09-23T16:28:31.744Z,11.60
2018-09-23T16:31:00.093Z,11.60
2018-09-23T16:33:28.438Z,11.50
2018-09-23T16:35:57.179Z,11.50
2018-09-23T16:38:25.619Z,11.50
2018-09-23T16:40:53.951Z,11.60
2018-09-23T16:43:22.323Z,11.60
2018-09-23T16:45:50.656Z,11.50
2018-09-23T16:48:19.011Z,11.60
2018-09-23T16:50:47.697Z,11.50
2018-09-23T16:53:16.118Z,11.50
2018-09-23T16:55:44.463Z,11.40
2018-09-23T16:58:12.816Z,11.40
2018-09-23T17:00:41.218Z,11.30
2018-09-23T17:03:09.492Z,11.30
2018-09-23T17:05:38.200Z,11.30
2018-09-23T17:08:06.530Z,11.20
2018-09-23T17:10:34.863Z,11.20
2018-09-23T17:13:03.230Z,11.20
2018-09-23T17:15:31.583Z,11.20
2018-09-23T17:17:59.956Z,11.10
2018-09-23T17:20:28.288Z,11.10
2018-09-23T17:22:56.625Z,11.20
2018-09-23T17:25:25.125Z,11.20
2018-09-23T17:27:54.275Z,11.10
2018-09-23T17:30:22.731Z,11.10
2018-09-23T17:32:51.048Z,11.20
2018-09-23T17:35:19.680Z,11.20
2018-09-23T17:37:48.018Z,11.10
2018-09-23T17:40:16.395Z,11.10
2018-09-23T17:42:45.120Z,11.20
2018-09-23T17:45:13.456Z,11.10
2018-09-23T17:47:41.803Z,11.10
2018-09-23T17:50:10.763Z,11.10
2018-09-23T17:52:39.140Z,11.10
2018-09-23T17:55:07.519Z,11.00
2018-09-23T17:57:36.024Z,11.00
2018-09-23T18:00:04.414Z,11.00
2018-09-23T18:02:32.754Z,11.00
2018-09-23T18:05:01.212Z,10.90
2018-09-23T18:07:29.656Z,11.00
2018-09-23T18:09:58.471Z,11.00
2018-09-23T18:12:27.336Z,11.10
2018-09-23T18:14:55.741Z,11.00
2018-09-23T18:17:24.195Z,11.00
2018-09-23T18:19:52.872Z,11.00
2018-09-23T18:22:21.293Z,11.00
2018-09-23T18:24:49.640Z,11.00
2018-09-23T18:27:20.368Z,11.00
2018-09-23T18:29:49.920Z,11.00
2018-09-23T18:32:19.130Z,11.00
2018-09-23T18:34:47.728Z,10.90
2018-09-23T18:37:16.222Z,11.00
2018-09-23T18:39:44.709Z,10.90
2018-09-23T18:42:13.532Z,11.00
2018-09-23T18:44:42.254Z,10.90
2018-09-23T18:47:10.786Z,11.00
2018-09-23T18:49:39.740Z,11.00
2018-09-23T18:52:09.090Z,10.90
2018-09-23T18:54:44.453Z,10.90
2018-09-23T18:57:15.188Z,10.90
2018-09-23T18:59:44.268Z,10.90
2018-09-23T19:02:12.952Z,10.90
2018-09-23T19:04:41.526Z,10.90
2018-09-23T19:07:10.449Z,10.90
2018-09-23T19:09:38.968Z,10.90
2018-09-23T19:12:08.444Z,10.80
2018-09-23T19:14:36.943Z,10.80
2018-09-23T19:17:05.416Z,10.80
2018-09-23T19:19:40.223Z,10.80
2018-09-23T19:22:13.031Z,10.70
2018-09-23T19:24:42.580Z,10.70
2018-09-23T19:27:11.022Z,10.70
2018-09-23T19:29:41.250Z,10.70
2018-09-23T19:32:09.777Z,10.60
2018-09-23T19:34:38.292Z,10.60
2018-09-23T19:37:06.977Z,10.50
2018-09-23T19:39:35.916Z,10.50
2018-09-23T19:42:04.434Z,10.40
2018-09-23T19:44:32.883Z,10.40
2018-09-23T19:47:01.266Z,10.40
2018-09-23T19:49:29.629Z,10.40
2018-09-23T19:51:58.059Z,10.20
2018-09-23T19:54:26.435Z,10.20
2018-09-23T19:56:54.812Z,10.20
2018-09-23T19:59:23.642Z,10.10
2018-09-23T20:01:52.031Z,10.00
2018-09-23T20:04:20.480Z,10.00
2018-09-23T20:06:48.989Z,10.00
2018-09-23T20:09:17.376Z,9.90
2018-09-23T20:11:45.755Z,9.90
2018-09-23T20:14:14.507Z,9.80
2018-09-23T20:16:42.900Z,9.80
2018-09-23T20:19:11.248Z,9.90
2018-09-23T20:21:40.255Z,9.90
2018-09-23T20:24:08.589Z,9.80
2018-09-23T20:26:36.927Z,9.80
2018-09-23T20:29:05.819Z,9.70
2018-09-23T20:31:34.208Z,9.70
2018-09-23T20:34:02.715Z,9.70
2018-09-23T20:36:31.633Z,9.70
2018-09-23T20:39:00.017Z,9.70
2018-09-23T20:41:28.343Z,9.60
2018-09-23T20:43:56.763Z,9.60
2018-09-23T20:46:25.028Z,9.60
2018-09-23T20:48:53.364Z,9.50
2018-09-23T20:51:21.719Z,9.50
2018-09-23T20:53:50.065Z,9.50
2018-09-23T20:56:18.448Z,9.50
2018-09-23T20:58:47.524Z,9.40
2018-09-23T21:01:15.849Z,9.40
2018-09-23T21:03:44.177Z,9.40
2018-09-23T21:06:13.084Z,9.30
2018-09-23T21:08:41.407Z,9.20
2018-09-23T21:11:09.745Z,9.30
2018-09-23T21:13:38.105Z,9.20
2018-09-23T21:16:06.451Z,9.10
2018-09-23T21:18:34.784Z,9.10
2018-09-23T21:21:03.392Z,9.10
2018-09-23T21:23:31.716Z,9.10
2018-09-23T21:26:00.060Z,9.00
2018-09-23T21:28:28.791Z,9.00
2018-09-23T21:30:57.124Z,8.90
2018-09-23T21:33:25.628Z,8.90
2018-09-23T21:35:54.399Z,8.90
2018-09-23T21:38:22.732Z,8.80
2018-09-23T21:40:51.067Z,8.80
2018-09-23T21:43:19.703Z,8.70
2018-09-23T21:45:48.046Z,8.70
2018-09-23T21:48:16.373Z,8.70
2018-09-23T21:50:44.711Z,8.70
2018-09-23T21:53:13.049Z,8.60
2018-09-23T21:55:41.372Z,8.50
2018-09-23T21:58:10.046Z,8.60
2018-09-23T22:00:43.465Z,8.50
2018-09-23T22:03:13.398Z,8.50
2018-09-23T22:05:41.724Z,8.50
2018-09-23T22:08:10.853Z,8.50
2018-09-23T22:10:39.492Z,8.50
2018-09-23T22:13:08.016Z,8.50
2018-09-23T22:15:36.355Z,8.50
2018-09-23T22:18:05.735Z,8.40
2018-09-23T22:20:34.051Z,8.40
2018-09-23T22:23:02.366Z,8.40
2018-09-23T22:25:31.212Z,8.40
2018-09-23T22:28:00.108Z,8.30
2018-09-23T22:30:28.427Z,8.30
2018-09-23T22:32:56.796Z,8.30
2018-09-23T22:35:25.218Z,8.30
2018-09-23T22:37:53.584Z,8.30
2018-09-23T22:40:21.932Z,8.30
2018-09-23T22:42:50.269Z,8.40
2018-09-23T22:45:18.634Z,8.40
2018-09-23T22:50:24.436Z,8.40
2018-09-23T22:52:53.587Z,8.30
2018-09-23T22:55:21.933Z,8.30
2018-09-23T22:57:50.279Z,8.30
2018-09-23T23:00:18.652Z,8.20
2018-09-23T23:02:47.002Z,8.20
2018-09-23T23:05:15.335Z,8.20
2018-09-23T23:07:44.100Z,8.20
2018-09-23T23:10:12.460Z,8.10
2018-09-23T23:12:40.936Z,8.10
2018-09-23T23:15:09.416Z,8.10
2018-09-23T23:17:37.748Z,8.10
2018-09-23T23:20:06.588Z,8.10
2018-09-23T23:22:35.275Z,8.00
2018-09-23T23:25:03.624Z,8.00
2018-09-23T23:27:31.975Z,8.00
2018-09-23T23:30:00.437Z,8.00
2018-09-23T23:32:28.832Z,7.90
2018-09-23T23:34:57.181Z,7.90
2018-09-23T23:37:26.052Z,7.90
2018-09-23T23:39:54.520Z,7.80
2018-09-23T23:42:22.845Z,7.80
2018-09-23T23:44:51.467Z,7.80
2018-09-23T23:47:19.833Z,7.80
2018-09-23T23:49:48.275Z,7.70
2018-09-23T23:52:17.336Z,7.60
2018-09-23T23:54:45.684Z,7.60
2018-09-23T23:57:14.044Z,7.70
2018-09-23T23:59:42.831Z,7.50
